Time;durP1;ratioP1;P1;durP2;ratioP2;P2;SDS_P1;SDS_P2;PMS_P1;PMS_P2;Temp;Humidity;BMP_temperature;BMP_pressure;BME280_temperature;BME280_humidity;BME280_pressure;Samples;Min_cycle;Max_cycle;Signal;HPM_P1;HPM_P2
2022/06/16 00:01:10;;;;;;;4.82;2.25;;;14.60;99.90;;;;;;4156988;28;20095;-67
2022/06/16 00:03:11;;;;;;;7.10;2.42;;;14.60;99.90;;;;;;4157118;28;20049;-70
2022/06/16 00:05:14;;;;;;;6.47;2.70;;;14.50;99.90;;;;;;4157057;28;20067;-65
2022/06/16 00:07:16;;;;;;;4.47;2.07;;;14.50;99.90;;;;;;4157241;28;20037;-68
2022/06/16 00:09:17;;;;;;;3.90;2.90;;;14.50;99.90;;;;;;4156562;28;20033;-67
2022/06/16 00:11:19;;;;;;;6.17;2.47;;;14.40;99.90;;;;;;4157517;28;20067;-68
2022/06/16 00:13:20;;;;;;;4.90;2.20;;;14.40;99.90;;;;;;4156347;28;20029;-68
2022/06/16 00:15:27;;;;;;;4.13;2.42;;;14.40;99.90;;;;;;4157701;28;20045;-68
2022/06/16 00:17:28;;;;;;;5.87;2.37;;;14.40;99.90;;;;;;4156637;28;20075;-66
2022/06/16 00:19:29;;;;;;;4.55;2.20;;;14.40;99.90;;;;;;4157272;28;20375;-64
2022/06/16 00:21:31;;;;;;;5.67;2.37;;;14.40;99.90;;;;;;4156612;28;20429;-66
2022/06/16 00:23:32;;;;;;;3.33;2.20;;;14.40;99.90;;;;;;4157119;28;20068;-67
2022/06/16 00:25:33;;;;;;;5.70;2.40;;;14.40;99.90;;;;;;4156393;28;20555;-67
2022/06/16 00:27:35;;;;;;;4.57;2.87;;;14.30;99.90;;;;;;4157208;28;20584;-65
2022/06/16 00:29:36;;;;;;;5.27;2.50;;;14.30;99.90;;;;;;4157320;28;20099;-69
2022/06/16 00:31:37;;;;;;;5.83;2.70;;;14.30;99.90;;;;;;4156700;28;20037;-68
2022/06/16 00:33:39;;;;;;;7.43;2.70;;;14.20;99.90;;;;;;4156964;28;20037;-68
2022/06/16 00:35:41;;;;;;;5.07;3.00;;;14.20;99.90;;;;;;4156291;28;20025;-69
2022/06/16 00:37:42;;;;;;;4.37;1.97;;;14.10;99.90;;;;;;4157075;28;20030;-68
2022/06/16 00:39:44;;;;;;;5.27;2.60;;;14.10;99.90;;;;;;4156148;28;20045;-68
2022/06/16 00:41:45;;;;;;;4.13;2.13;;;14.00;99.90;;;;;;4155794;28;20033;-65
2022/06/16 00:43:47;;;;;;;3.57;2.23;;;14.10;99.90;;;;;;4156506;28;20119;-64
2022/06/16 00:45:50;;;;;;;4.07;2.20;;;14.10;99.90;;;;;;4156703;28;20485;-66
2022/06/16 00:47:53;;;;;;;3.77;2.17;;;14.10;99.90;;;;;;4155924;28;20079;-66
2022/06/16 00:49:58;;;;;;;4.63;2.13;;;14.00;99.90;;;;;;4157056;28;20029;-65
2022/06/16 00:52:09;;;;;;;3.10;2.40;;;14.10;99.90;;;;;;4156091;28;20041;-69
2022/06/16 00:54:31;;;;;;;3.97;2.20;;;14.00;99.90;;;;;;4156718;28;20528;-69
2022/06/16 00:56:33;;;;;;;3.73;2.53;;;14.00;99.90;;;;;;4156010;28;20548;-67
2022/06/16 00:58:40;;;;;;;5.57;2.57;;;14.00;99.90;;;;;;4157112;28;20049;-69
2022/06/16 01:00:44;;;;;;;3.83;2.23;;;14.00;99.90;;;;;;4155651;28;20060;-69
2022/06/16 01:02:45;;;;;;;4.70;2.03;;;13.90;99.90;;;;;;4156832;28;20498;-69
2022/06/16 01:04:52;;;;;;;7.53;2.43;;;13.90;99.90;;;;;;4156187;28;20083;-65
2022/06/16 01:06:55;;;;;;;5.47;2.20;;;13.80;99.90;;;;;;4156700;28;20029;-66
2022/06/16 01:09:20;;;;;;;4.73;2.47;;;13.80;99.90;;;;;;4155674;28;20103;-66
2022/06/16 01:14:19;;;;;;;6.30;2.60;;;13.60;99.90;;;;;;4155916;28;20068;-66
2022/06/16 01:16:29;;;;;;;3.90;2.30;;;13.50;99.90;;;;;;4156026;28;20029;-67
2022/06/16 01:19:00;;;;;;;5.63;2.47;;;13.50;99.90;;;;;;4155749;28;20029;-69
2022/06/16 01:21:16;;;;;;;4.03;2.07;;;13.50;99.90;;;;;;4155250;28;20544;-66
2022/06/16 01:23:56;;;;;;;5.97;2.50;;;13.50;99.90;;;;;;4156046;28;20033;-67
2022/06/16 01:26:28;;;;;;;7.22;2.20;;;13.50;99.90;;;;;;4155894;28;20033;-66
2022/06/16 01:28:53;;;;;;;2.80;1.80;;;13.50;99.90;;;;;;4156898;28;20083;-67
2022/06/16 01:31:26;;;;;;;4.20;2.20;;;13.50;99.90;;;;;;4155190;28;20075;-67
2022/06/16 01:34:06;;;;;;;6.57;2.30;;;13.40;99.90;;;;;;4156161;28;20025;-66
2022/06/16 01:36:20;;;;;;;6.03;2.25;;;13.50;99.90;;;;;;4155507;28;20111;-66
2022/06/16 01:38:33;;;;;;;3.43;1.90;;;13.50;99.90;;;;;;4156086;28;20088;-66
2022/06/16 01:41:01;;;;;;;4.47;1.80;;;13.50;99.90;;;;;;4155685;28;20076;-67
2022/06/16 01:43:15;;;;;;;5.20;2.33;;;13.40;99.90;;;;;;4155479;28;20034;-69
2022/06/16 01:45:35;;;;;;;7.57;2.63;;;13.30;99.90;;;;;;4155838;28;20026;-66
2022/06/16 01:47:41;;;;;;;3.63;2.23;;;13.30;99.90;;;;;;4155566;28;20761;-67
2022/06/16 01:49:48;;;;;;;4.93;2.10;;;13.30;99.90;;;;;;4155911;28;20030;-67
2022/06/16 01:51:54;;;;;;;3.23;2.00;;;13.20;99.90;;;;;;4155737;28;20087;-66
2022/06/16 01:54:18;;;;;;;5.40;1.80;;;13.20;99.90;;;;;;4160541;28;20453;-65
2022/06/16 01:56:29;;;;;;;5.00;1.70;;;13.20;99.90;;;;;;4160116;28;20568;-65
2022/06/16 01:58:36;;;;;;;5.43;2.17;;;13.20;99.90;;;;;;4161288;28;20118;-65
2022/06/16 02:00:38;;;;;;;6.90;2.00;;;13.30;99.90;;;;;;4158986;28;20046;-67
2022/06/16 02:02:41;;;;;;;6.67;2.47;;;13.30;99.90;;;;;;4161125;28;20363;-64
2022/06/16 02:04:59;;;;;;;5.63;1.97;;;13.30;99.90;;;;;;4160645;28;20466;-68
2022/06/16 02:07:08;;;;;;;2.33;1.87;;;13.20;99.90;;;;;;4160620;28;20452;-63
2022/06/16 02:09:14;;;;;;;3.37;2.00;;;13.20;99.90;;;;;;4160649;28;20104;-63
2022/06/16 02:11:30;;;;;;;6.90;2.13;;;13.20;99.90;;;;;;4160848;28;20075;-64
2022/06/16 02:13:39;;;;;;;4.80;2.27;;;13.20;99.90;;;;;;4160779;28;20047;-66
2022/06/16 02:16:15;;;;;;;2.63;1.90;;;13.20;99.90;;;;;;4161219;28;20485;-65
2022/06/16 02:18:21;;;;;;;6.23;1.80;;;13.20;99.90;;;;;;4159621;28;20099;-63
2022/06/16 02:20:27;;;;;;;4.53;2.27;;;13.20;99.90;;;;;;4161380;28;20026;-64
2022/06/16 02:22:28;;;;;;;6.73;1.93;;;13.20;99.90;;;;;;4160850;28;20029;-65
2022/06/16 02:24:30;;;;;;;4.23;2.20;;;13.20;99.90;;;;;;4160741;28;20106;-64
2022/06/16 02:26:32;;;;;;;8.20;2.80;;;13.20;99.90;;;;;;4160313;28;20433;-64
2022/06/16 02:28:53;;;;;;;6.47;2.87;;;13.20;99.90;;;;;;4160665;28;20895;-66
2022/06/16 02:31:12;;;;;;;6.43;2.13;;;13.10;99.90;;;;;;4160632;28;20409;-64
2022/06/16 02:33:39;;;;;;;6.23;2.20;;;13.10;99.90;;;;;;4160513;28;20025;-65
2022/06/16 02:35:59;;;;;;;7.37;2.20;;;13.00;99.90;;;;;;4160673;28;20470;-65
2022/06/16 02:38:20;;;;;;;;;;;12.90;99.90;;;;;;4161846;28;20042;-69
2022/06/16 02:40:35;;;;;;;8.48;2.80;;;12.90;99.90;;;;;;4160027;28;19917;-69
2022/06/16 02:43:13;;;;;;;6.67;2.30;;;12.90;99.90;;;;;;4160360;28;20041;-65
2022/06/16 02:45:25;;;;;;;5.87;2.70;;;12.90;99.90;;;;;;4160370;28;20490;-65
2022/06/16 02:47:44;;;;;;;5.13;2.60;;;13.00;99.90;;;;;;4160698;28;20092;-64
2022/06/16 02:50:00;;;;;;;7.10;2.53;;;13.20;99.90;;;;;;4160453;28;20025;-66
2022/06/16 02:52:07;;;;;;;6.67;3.00;;;13.40;99.90;;;;;;4160115;28;20021;-67
2022/06/16 02:54:42;;;;;;;9.23;2.40;;;13.60;99.90;;;;;;4160681;28;20049;-66
2022/06/16 02:57:18;;;;;;;5.20;2.20;;;13.90;99.90;;;;;;4141455;28;20087;-64
2022/06/16 02:59:35;;;;;;;5.90;2.13;;;14.30;99.90;;;;;;4161275;28;20037;-66
2022/06/16 03:01:37;;;;;;;8.30;2.27;;;14.60;99.90;;;;;;4160449;28;20033;-68
2022/06/16 03:03:38;;;;;;;5.43;2.50;;;14.80;99.90;;;;;;4160937;28;20099;-67
2022/06/16 03:05:39;;;;;;;5.20;2.33;;;15.00;99.90;;;;;;4157035;28;20485;-68
2022/06/16 03:07:42;;;;;;;7.33;2.60;;;15.30;99.90;;;;;;4158436;28;20383;-67
2022/06/16 03:09:44;;;;;;;4.80;3.03;;;15.70;99.90;;;;;;4157487;28;20470;-65
2022/06/16 03:11:45;;;;;;;6.47;2.57;;;16.10;99.90;;;;;;4157892;28;20038;-65
2022/06/16 03:13:46;;;;;;;7.60;2.10;;;16.40;99.90;;;;;;4157444;28;20436;-65
2022/06/16 03:15:50;;;;;;;4.13;2.40;;;16.60;99.90;;;;;;4157732;28;20037;-66
2022/06/16 03:17:51;;;;;;;5.60;2.35;;;16.80;99.90;;;;;;4157504;28;20034;-67
2022/06/16 03:19:52;;;;;;;4.00;2.38;;;17.10;99.90;;;;;;4157659;28;20095;-66
2022/06/16 03:21:54;;;;;;;4.47;2.30;;;17.40;99.90;;;;;;4157940;28;20049;-66
2022/06/16 03:23:56;;;;;;;7.25;2.10;;;17.80;99.90;;;;;;4157241;28;20029;-65
2022/06/16 03:25:58;;;;;;;8.32;2.40;;;18.20;99.90;;;;;;4157749;28;20816;-67
2022/06/16 03:27:59;;;;;;;6.55;2.40;;;18.50;99.90;;;;;;4156784;28;20045;-65
2022/06/16 03:30:00;;;;;;;4.35;2.45;;;19.00;99.90;;;;;;4158680;28;20033;-70
2022/06/16 03:32:02;;;;;;;8.10;2.75;;;19.10;99.90;;;;;;4156724;28;20025;-65
2022/06/16 03:34:03;;;;;;;7.82;2.25;;;19.40;99.90;;;;;;4157955;28;20067;-68
2022/06/16 03:36:04;;;;;;;3.50;1.92;;;19.70;99.70;;;;;;4155552;28;20071;-68
2022/06/16 03:38:09;;;;;;;3.90;2.03;;;20.00;99.20;;;;;;4157432;28;20064;-70
2022/06/16 03:40:13;;;;;;;4.55;2.17;;;20.40;98.60;;;;;;4157090;28;20126;-67
2022/06/16 03:42:15;;;;;;;5.80;2.28;;;20.80;97.90;;;;;;4157489;28;20056;-67
2022/06/16 03:44:16;;;;;;;3.20;1.70;;;21.10;97.30;;;;;;4157492;28;20025;-68
2022/06/16 03:46:17;;;;;;;9.95;2.58;;;21.40;96.60;;;;;;4157583;28;20709;-66
2022/06/16 03:48:18;;;;;;;7.40;2.15;;;21.70;96.00;;;;;;4157504;28;20044;-69
2022/06/16 03:50:20;;;;;;;4.07;2.10;;;21.80;95.40;;;;;;4157577;28;20037;-66
2022/06/16 03:52:21;;;;;;;5.53;2.15;;;21.80;95.00;;;;;;4157542;28;20029;-69
2022/06/16 03:54:22;;;;;;;5.00;1.80;;;22.10;94.60;;;;;;4157209;28;20091;-67
2022/06/16 03:56:23;;;;;;;3.63;2.00;;;22.30;94.10;;;;;;4157446;28;20136;-68
2022/06/16 03:58:25;;;;;;;6.95;2.25;;;22.50;93.60;;;;;;4155908;28;20049;-68
2022/06/16 04:00:26;;;;;;;7.57;2.30;;;22.70;93.10;;;;;;4158025;28;20037;-68
2022/06/16 04:02:27;;;;;;;6.50;2.10;;;22.90;92.50;;;;;;4156711;28;20060;-67
2022/06/16 04:04:28;;;;;;;3.85;2.20;;;23.10;92.10;;;;;;4157345;28;20090;-67
2022/06/16 04:06:32;;;;;;;4.88;1.90;;;23.40;91.70;;;;;;4156185;28;21054;-65
2022/06/16 04:08:34;;;;;;;2.58;1.83;;;23.70;91.00;;;;;;4155544;28;20037;-69
2022/06/16 04:10:35;;;;;;;4.38;2.08;;;24.00;90.50;;;;;;4156542;28;20083;-64
2022/06/16 04:12:36;;;;;;;3.42;2.00;;;24.30;89.90;;;;;;4156639;28;20037;-66
2022/06/16 04:14:37;;;;;;;4.28;1.73;;;24.40;89.60;;;;;;4156484;28;20076;-66
2022/06/16 04:16:42;;;;;;;3.28;1.70;;;24.60;87.90;;;;;;4156961;28;20055;-66
2022/06/16 04:18:43;;;;;;;4.60;2.20;;;24.70;85.90;;;;;;4156373;28;20531;-69
2022/06/16 04:20:46;;;;;;;6.45;1.50;;;24.60;85.90;;;;;;4156818;28;21051;-70
2022/06/16 04:22:50;;;;;;;4.47;1.70;;;24.90;85.00;;;;;;4156438;28;20037;-67
2022/06/16 04:24:52;;;;;;;3.63;1.50;;;24.90;84.50;;;;;;4156331;28;20025;-68
2022/06/16 04:26:54;;;;;;;7.80;1.98;;;25.20;83.80;;;;;;4156657;28;20029;-65
2022/06/16 04:28:55;;;;;;;3.38;1.70;;;25.60;83.00;;;;;;4154834;28;20132;-69
2022/06/16 04:30:56;;;;;;;3.58;1.30;;;25.90;81.80;;;;;;4157162;28;20033;-68
2022/06/16 04:32:58;;;;;;;3.70;1.92;;;26.20;80.80;;;;;;4156013;28;20437;-67
2022/06/16 04:35:00;;;;;;;5.20;2.00;;;26.30;80.10;;;;;;4156901;28;20497;-66
2022/06/16 04:37:01;;;;;;;3.33;1.30;;;26.50;79.30;;;;;;4155928;28;20099;-66
2022/06/16 04:39:02;;;;;;;3.53;1.77;;;26.50;78.70;;;;;;4156729;28;20037;-67
2022/06/16 04:41:03;;;;;;;3.97;1.55;;;26.60;78.00;;;;;;4155832;28;20037;-68
2022/06/16 04:43:04;;;;;;;4.47;1.73;;;26.50;77.30;;;;;;4156620;28;20103;-69
2022/06/16 04:45:06;;;;;;;5.28;2.55;;;26.40;77.20;;;;;;4155662;28;20041;-65
2022/06/16 04:47:08;;;;;;;5.32;1.70;;;26.50;77.00;;;;;;4156510;28;20448;-68
2022/06/16 04:49:10;;;;;;;2.85;1.60;;;26.80;76.50;;;;;;4155787;28;20080;-67
2022/06/16 04:51:13;;;;;;;2.00;1.45;;;26.50;76.00;;;;;;4156496;28;20079;-68
2022/06/16 04:53:14;;;;;;;2.60;1.30;;;26.70;75.60;;;;;;4156494;28;20111;-69
2022/06/16 04:55:16;;;;;;;14.85;3.50;;;26.80;75.00;;;;;;4156326;28;20099;-67
2022/06/16 04:57:17;;;;;;;16.90;3.47;;;26.60;75.00;;;;;;4156077;28;20041;-65
2022/06/16 04:59:19;;;;;;;11.98;3.30;;;25.20;76.70;;;;;;4155557;28;20055;-66
2022/06/16 05:01:20;;;;;;;17.27;4.15;;;24.00;79.00;;;;;;4156740;28;20580;-67
2022/06/16 05:03:25;;;;;;;16.60;3.85;;;23.60;80.50;;;;;;4155448;28;20029;-69
2022/06/16 05:05:26;;;;;;;14.55;3.75;;;23.50;81.10;;;;;;4156193;28;20029;-68
2022/06/16 05:07:28;;;;;;;11.55;3.78;;;22.60;82.50;;;;;;4155243;28;20045;-66
2022/06/16 05:09:29;;;;;;;16.85;4.10;;;21.80;84.30;;;;;;4156162;28;20040;-65
2022/06/16 05:11:30;;;;;;;19.33;4.53;;;21.10;86.30;;;;;;4155249;28;20025;-67
2022/06/16 05:13:31;;;;;;;12.32;4.43;;;20.70;87.70;;;;;;4156151;28;20033;-66
2022/06/16 05:15:33;;;;;;;16.70;4.68;;;20.30;89.30;;;;;;4155971;28;20029;-65
2022/06/16 05:17:34;;;;;;;22.73;8.65;;;20.30;90.10;;;;;;4156141;28;20048;-66
2022/06/16 05:19:36;;;;;;;20.13;5.05;;;20.10;90.10;;;;;;4155454;28;20033;-67
2022/06/16 05:21:37;;;;;;;26.42;5.90;;;19.80;90.50;;;;;;4155300;28;20042;-67
2022/06/16 05:23:39;;;;;;;33.67;5.50;;;20.10;90.50;;;;;;4155289;28;20115;-66
2022/06/16 05:25:41;;;;;;;23.10;5.00;;;20.70;90.20;;;;;;4155335;28;20045;-68
2022/06/16 05:27:42;;;;;;;21.45;4.28;;;21.10;89.40;;;;;;4153966;28;20576;-65
2022/06/16 05:29:43;;;;;;;23.20;5.15;;;20.90;89.20;;;;;;4155752;28;20084;-69
2022/06/16 05:31:45;;;;;;;17.52;4.22;;;20.90;89.50;;;;;;4156162;28;20037;-66
2022/06/16 05:33:46;;;;;;;20.40;4.25;;;21.00;89.40;;;;;;4154921;28;20490;-69
2022/06/16 05:35:58;;;;;;;23.48;5.68;;;21.20;88.90;;;;;;4155158;28;20045;-64
2022/06/16 05:37:59;;;;;;;18.35;4.15;;;21.50;88.60;;;;;;4153987;28;20107;-64
2022/06/16 05:40:01;;;;;;;13.65;3.85;;;21.80;87.70;;;;;;4155136;28;20089;-66
2022/06/16 05:42:02;;;;;;;16.30;5.05;;;21.80;87.40;;;;;;4154238;28;20157;-67
2022/06/16 05:44:04;;;;;;;19.00;3.97;;;21.70;87.80;;;;;;4155033;28;20033;-68
2022/06/16 05:46:07;;;;;;;15.23;4.10;;;21.80;87.80;;;;;;4153596;28;20103;-66
2022/06/16 05:48:08;;;;;;;17.52;3.92;;;22.20;87.20;;;;;;4155027;28;20103;-65
2022/06/16 05:50:13;;;;;;;41.63;4.78;;;22.60;86.90;;;;;;4154860;28;20033;-67
2022/06/16 05:52:18;;;;;;;18.95;4.38;;;23.20;85.80;;;;;;4153979;28;20037;-66
2022/06/16 05:54:19;;;;;;;17.80;3.67;;;23.90;84.40;;;;;;4154543;28;20072;-68
2022/06/16 05:56:20;;;;;;;13.32;3.30;;;24.10;83.30;;;;;;4155124;28;20436;-69
2022/06/16 05:58:21;;;;;;;13.48;4.22;;;23.70;83.50;;;;;;4155162;28;20804;-66
2022/06/16 06:00:22;;;;;;;17.20;3.38;;;23.50;83.80;;;;;;4155332;28;20103;-67
2022/06/16 06:02:24;;;;;;;7.07;3.10;;;23.90;83.50;;;;;;4155809;28;20037;-66
2022/06/16 06:04:25;;;;;;;10.07;2.13;;;24.50;82.50;;;;;;4154996;28;20033;-66
2022/06/16 06:06:26;;;;;;;12.20;2.70;;;25.30;81.20;;;;;;4155612;28;20037;-64
2022/06/16 06:17:52;;;;;;;12.10;2.40;;;25.20;79.30;;;;;;4155249;28;20083;-65
2022/06/16 06:19:53;;;;;;;9.30;2.58;;;24.90;79.80;;;;;;4155079;28;20049;-66
2022/06/16 06:21:59;;;;;;;17.15;2.42;;;24.80;80.60;;;;;;4155150;28;20030;-72
2022/06/16 06:24:00;;;;;;;10.73;3.33;;;25.10;80.60;;;;;;4155354;28;20426;-68
2022/06/16 06:26:02;;;;;;;10.18;2.17;;;25.50;79.90;;;;;;4154988;28;20072;-69
2022/06/16 06:28:03;;;;;;;10.32;1.88;;;25.50;79.20;;;;;;4155267;28;20033;-67
2022/06/16 06:30:06;;;;;;;5.63;2.40;;;25.50;79.20;;;;;;4155069;28;20021;-65
2022/06/16 06:32:09;;;;;;;5.35;1.77;;;25.20;78.80;;;;;;4154140;28;20038;-69
2022/06/16 06:34:10;;;;;;;9.93;2.28;;;24.20;79.20;;;;;;4154618;28;20155;-67
2022/06/16 06:36:12;;;;;;;7.22;2.28;;;23.40;80.60;;;;;;4153575;28;20042;-70
2022/06/16 06:38:14;;;;;;;7.10;2.50;;;22.70;81.60;;;;;;4154532;28;20100;-64
2022/06/16 06:40:28;;;;;;;9.80;2.20;;;22.30;82.60;;;;;;4155556;28;20053;-69
2022/06/16 06:42:30;;;;;;;12.73;2.13;;;22.30;83.70;;;;;;4157223;28;20029;-69
2022/06/16 06:44:32;;;;;;;6.55;2.75;;;22.90;82.70;;;;;;4158496;28;20033;-68
2022/06/16 06:46:33;;;;;;;13.48;2.70;;;23.00;82.10;;;;;;4157584;28;20052;-65
2022/06/16 06:48:34;;;;;;;6.28;2.28;;;22.80;82.50;;;;;;4157584;28;20108;-65
2022/06/16 06:50:40;;;;;;;9.88;2.67;;;22.90;83.00;;;;;;4158011;28;20048;-67
2022/06/16 06:52:41;;;;;;;8.75;2.78;;;23.10;82.80;;;;;;4157474;28;20107;-64
2022/06/16 06:54:43;;;;;;;10.07;2.75;;;23.10;82.80;;;;;;4157554;28;20071;-64
2022/06/16 06:56:45;;;;;;;7.47;2.53;;;22.80;83.40;;;;;;4157796;28;20056;-66
2022/06/16 06:58:46;;;;;;;5.90;2.47;;;22.70;84.20;;;;;;4157582;28;20049;-65
2022/06/16 07:00:53;;;;;;;18.50;3.15;;;22.60;84.40;;;;;;4157941;28;20127;-69
2022/06/16 07:02:54;;;;;;;10.43;3.10;;;22.20;85.40;;;;;;4158203;28;20033;-66
2022/06/16 07:04:56;;;;;;;12.57;3.35;;;22.40;85.70;;;;;;4157364;28;20041;-67
2022/06/16 07:06:57;;;;;;;9.73;2.92;;;22.60;85.40;;;;;;4157956;28;20037;-66
2022/06/16 07:08:58;;;;;;;12.77;3.20;;;22.70;85.80;;;;;;4157254;28;20033;-66
2022/06/16 07:11:00;;;;;;;14.18;2.80;;;23.10;85.60;;;;;;4157668;28;20425;-66
2022/06/16 07:13:01;;;;;;;8.20;2.40;;;22.80;86.10;;;;;;4156138;28;20041;-70
2022/06/16 07:15:03;;;;;;;10.07;2.88;;;22.60;86.80;;;;;;4157907;28;20045;-65
2022/06/16 07:17:04;;;;;;;4.60;2.13;;;22.60;87.40;;;;;;4156791;28;20033;-65
2022/06/16 07:19:06;;;;;;;8.73;2.60;;;22.50;87.60;;;;;;4157630;28;20037;-68
2022/06/16 07:21:07;;;;;;;4.63;2.10;;;22.40;88.00;;;;;;4156441;28;20053;-69
2022/06/16 07:23:08;;;;;;;4.45;2.00;;;22.50;88.20;;;;;;4157909;28;20119;-68
2022/06/16 07:25:10;;;;;;;8.38;2.50;;;22.50;88.30;;;;;;4156712;28;20549;-65
2022/06/16 07:27:11;;;;;;;7.22;2.90;;;22.50;88.40;;;;;;4158078;28;20041;-68
2022/06/16 07:29:12;;;;;;;8.13;2.50;;;22.40;88.80;;;;;;4157382;28;20041;-65
2022/06/16 07:31:14;;;;;;;5.63;2.50;;;22.30;89.40;;;;;;4157617;28;20436;-66
2022/06/16 07:33:16;;;;;;;6.95;2.40;;;22.40;89.70;;;;;;4157609;28;20046;-70
2022/06/16 07:35:20;;;;;;;6.25;2.08;;;22.60;89.40;;;;;;4157091;28;20041;-68
2022/06/16 07:37:21;;;;;;;7.50;1.98;;;23.00;88.70;;;;;;4157318;28;20076;-69
2022/06/16 07:39:22;;;;;;;9.70;2.10;;;23.30;88.20;;;;;;4156986;28;20079;-69
2022/06/16 07:41:34;;;;;;;6.20;2.50;;;23.40;87.70;;;;;;4156913;28;20045;-67
2022/06/16 07:43:35;;;;;;;6.20;2.20;;;23.30;87.80;;;;;;4156292;28;20091;-66
2022/06/16 07:45:38;;;;;;;7.93;2.00;;;23.30;88.40;;;;;;4157218;28;20033;-65
2022/06/16 07:47:40;;;;;;;5.38;2.17;;;23.20;88.60;;;;;;4156313;28;20080;-64
2022/06/16 07:49:41;;;;;;;4.45;1.85;;;23.30;88.90;;;;;;4156010;28;20081;-67
2022/06/16 07:51:42;;;;;;;5.90;3.45;;;23.30;88.80;;;;;;4155944;28;20017;-68
2022/06/16 07:53:43;;;;;;;4.80;2.08;;;23.60;88.70;;;;;;4157102;28;20049;-66
2022/06/16 07:55:46;;;;;;;12.35;3.85;;;23.50;88.90;;;;;;4156458;28;20080;-68
2022/06/16 07:57:50;;;;;;;7.22;1.90;;;23.50;89.20;;;;;;4157091;28;20451;-66
2022/06/16 07:59:52;;;;;;;2.10;1.58;;;23.50;89.20;;;;;;4155954;28;20037;-67
2022/06/16 08:01:54;;;;;;;3.80;2.08;;;23.50;89.00;;;;;;4157275;28;20041;-69
2022/06/16 08:03:55;;;;;;;7.75;1.70;;;23.50;89.00;;;;;;4157015;28;20053;-67
2022/06/16 08:05:58;;;;;;;2.30;1.42;;;23.80;87.90;;;;;;4156901;28;20038;-69
2022/06/16 08:07:59;;;;;;;5.57;1.63;;;23.90;87.70;;;;;;4156463;28;20172;-65
2022/06/16 08:10:00;;;;;;;4.63;1.50;;;23.80;87.50;;;;;;4156682;28;20041;-64
2022/06/16 08:12:03;;;;;;;6.32;1.45;;;23.90;87.40;;;;;;4156084;28;20087;-65
2022/06/16 08:14:04;;;;;;;2.78;1.23;;;23.90;86.10;;;;;;4154847;28;20100;-65
2022/06/16 08:16:05;;;;;;;3.45;1.75;;;23.90;86.20;;;;;;4156736;28;20095;-66
2022/06/16 08:18:08;;;;;;;3.80;1.27;;;23.90;86.20;;;;;;4156079;28;20413;-68
2022/06/16 08:20:09;;;;;;;4.88;1.80;;;24.40;85.70;;;;;;4156726;28;20582;-69
2022/06/16 08:22:12;;;;;;;4.28;1.23;;;24.80;83.80;;;;;;4156109;28;20041;-70
2022/06/16 08:24:13;;;;;;;1.98;1.20;;;24.80;82.80;;;;;;4156972;28;20029;-67
2022/06/16 08:26:14;;;;;;;3.85;1.23;;;25.00;82.40;;;;;;4155831;28;20037;-65
2022/06/16 08:28:19;;;;;;;3.25;1.08;;;25.00;82.10;;;;;;4156667;28;20033;-69
2022/06/16 08:30:20;;;;;;;2.60;1.40;;;24.90;81.90;;;;;;4155977;28;20548;-65
2022/06/16 08:32:23;;;;;;;2.78;1.10;;;25.00;81.90;;;;;;4154866;28;20095;-66
2022/06/16 08:34:25;;;;;;;2.80;1.20;;;25.00;81.30;;;;;;4155695;28;20113;-66
2022/06/16 08:36:26;;;;;;;3.92;1.10;;;24.80;81.20;;;;;;4156635;28;20456;-66
2022/06/16 08:38:27;;;;;;;3.85;1.73;;;24.90;81.00;;;;;;4156390;28;20025;-66
2022/06/16 08:40:29;;;;;;;1.67;1.00;;;24.90;80.70;;;;;;4155881;28;20103;-68
2022/06/16 08:42:57;;;;;;;4.82;1.05;;;24.90;80.40;;;;;;4156052;28;20092;-68
2022/06/16 08:45:14;;;;;;;1.83;0.68;;;24.90;79.60;;;;;;4156345;28;20045;-66
2022/06/16 08:47:20;;;;;;;2.72;1.08;;;24.90;79.20;;;;;;4155935;28;20048;-65
2022/06/16 08:49:56;;;;;;;3.78;0.90;;;24.80;78.80;;;;;;4156107;28;20099;-67
2022/06/16 08:52:02;;;;;;;2.88;0.82;;;24.90;78.70;;;;;;4152377;28;20049;-70
2022/06/16 08:54:09;;;;;;;2.60;0.80;;;25.30;77.50;;;;;;4156392;28;20103;-69
2022/06/16 08:56:18;;;;;;;2.10;0.90;;;25.50;77.10;;;;;;4155535;28;20033;-69
2022/06/16 08:58:38;;;;;;;1.67;1.00;;;25.40;76.20;;;;;;4156001;28;20379;-66
2022/06/16 09:00:46;;;;;;;3.05;1.95;;;25.40;76.60;;;;;;4155301;28;20037;-66
2022/06/16 09:03:25;;;;;;;8.50;1.55;;;25.40;76.50;;;;;;4155208;28;20037;-67
2022/06/16 09:05:51;;;;;;;3.10;1.03;;;25.30;75.20;;;;;;4143695;28;20460;-66
2022/06/16 09:08:11;;;;;;;2.22;1.20;;;25.30;76.20;;;;;;4155712;28;20266;-68
2022/06/16 09:10:23;;;;;;;0.98;0.63;;;25.20;75.60;;;;;;4155525;28;20076;-66
2022/06/16 09:12:27;;;;;;;3.65;1.10;;;25.00;76.10;;;;;;4155717;28;20041;-66
2022/06/16 09:15:12;;;;;;;1.13;0.90;;;24.80;76.40;;;;;;4155987;28;20457;-67
2022/06/16 09:17:40;;;;;;;1.58;0.90;;;24.60;76.00;;;;;;4155800;28;20034;-66
2022/06/16 09:19:59;;;;;;;1.50;0.80;;;24.40;76.10;;;;;;4155588;28;20107;-69
2022/06/16 09:22:18;;;;;;;5.47;0.77;;;24.30;75.10;;;;;;4155259;28;20107;-65
2022/06/16 09:24:31;;;;;;;3.25;1.10;;;24.50;75.50;;;;;;4155942;28;20319;-66
2022/06/16 09:27:00;;;;;;;2.75;0.80;;;24.60;75.50;;;;;;4154853;28;20029;-65
2022/06/16 09:29:27;;;;;;;1.70;0.80;;;24.90;75.30;;;;;;4154541;28;20045;-66
2022/06/16 09:31:44;;;;;;;3.83;0.85;;;25.20;74.90;;;;;;4144855;28;20470;-64
2022/06/16 09:33:57;;;;;;;2.97;0.90;;;25.20;73.50;;;;;;4156233;28;20540;-65
2022/06/16 09:36:05;;;;;;;2.83;1.00;;;25.00;73.20;;;;;;4154936;28;20033;-67
2022/06/16 09:38:14;;;;;;;4.20;0.93;;;24.80;73.90;;;;;;4155401;28;20385;-67
2022/06/16 09:40:24;;;;;;;1.30;0.82;;;25.00;74.00;;;;;;4155246;28;20095;-66
2022/06/16 09:42:38;;;;;;;1.55;0.90;;;24.80;72.60;;;;;;4155593;28;20359;-65
2022/06/16 09:44:47;;;;;;;5.43;1.17;;;24.60;72.30;;;;;;4155038;28;20457;-66
2022/06/16 09:46:54;;;;;;;1.63;0.80;;;24.60;72.10;;;;;;4155887;28;20762;-70
2022/06/16 09:49:14;;;;;;;2.08;0.90;;;24.60;72.10;;;;;;4155217;28;20060;-65
2022/06/16 09:51:25;;;;;;;1.05;0.70;;;24.80;72.60;;;;;;4155738;28;20111;-69
2022/06/16 09:53:41;;;;;;;4.20;0.85;;;24.90;71.40;;;;;;4154793;28;20426;-70
2022/06/16 09:55:55;;;;;;;2.83;0.80;;;25.00;71.20;;;;;;4155247;28;20041;-65
2022/06/16 09:58:11;;;;;;;2.05;0.90;;;25.00;71.30;;;;;;4154990;28;20049;-67
2022/06/16 10:00:24;;;;;;;2.83;0.90;;;25.20;70.80;;;;;;4154804;28;20033;-66
2022/06/16 10:02:32;;;;;;;1.75;0.70;;;25.20;70.10;;;;;;4154985;28;20041;-66
2022/06/16 10:04:34;;;;;;;2.40;0.82;;;25.30;71.00;;;;;;4155669;28;20500;-66
2022/06/16 10:07:04;;;;;;;3.58;0.90;;;25.30;70.80;;;;;;4155075;28;20025;-66
2022/06/16 10:09:08;;;;;;;1.90;0.80;;;25.70;69.60;;;;;;4155481;28;20033;-65
2022/06/16 10:11:30;;;;;;;4.93;0.80;;;25.90;70.20;;;;;;4154960;28;20037;-67
2022/06/16 10:13:54;;;;;;;5.15;1.30;;;25.80;69.00;;;;;;4155326;28;20087;-64
2022/06/16 10:16:00;;;;;;;1.90;1.05;;;25.50;69.60;;;;;;4158544;28;20500;-64
2022/06/16 10:18:03;;;;;;;2.25;1.00;;;25.40;69.60;;;;;;4158297;28;20025;-64
2022/06/16 10:20:05;;;;;;;3.60;0.77;;;25.60;69.80;;;;;;4158486;28;20033;-64
2022/06/16 10:22:07;;;;;;;7.93;1.45;;;25.60;69.20;;;;;;4158618;28;20119;-64
2022/06/16 10:24:09;;;;;;;4.25;1.00;;;25.30;69.10;;;;;;4157951;28;20154;-65
2022/06/16 10:26:11;;;;;;;1.70;0.60;;;25.10;69.50;;;;;;4158562;28;20083;-66
2022/06/16 10:28:21;;;;;;;1.58;0.82;;;25.00;69.60;;;;;;4157913;28;20091;-64
2022/06/16 10:30:24;;;;;;;3.15;0.98;;;25.10;69.90;;;;;;4158193;28;20026;-66
2022/06/16 10:32:36;;;;;;;2.53;1.05;;;25.20;70.20;;;;;;4157591;28;20056;-69
2022/06/16 10:34:40;;;;;;;4.57;0.70;;;25.40;69.90;;;;;;4158809;28;20029;-70
2022/06/16 10:36:52;;;;;;;1.67;0.88;;;25.40;69.90;;;;;;4157630;28;20152;-65
2022/06/16 10:39:15;;;;;;;2.97;0.85;;;25.50;69.80;;;;;;4158309;28;20444;-66
2022/06/16 10:41:30;;;;;;;3.85;1.85;;;25.80;69.60;;;;;;4157540;28;20051;-65
2022/06/16 10:43:38;;;;;;;1.55;1.23;;;25.80;68.30;;;;;;4158275;28;20042;-68
2022/06/16 10:45:40;;;;;;;2.63;0.95;;;25.70;68.90;;;;;;4158199;28;20042;-68
2022/06/16 10:47:56;;;;;;;2.60;0.93;;;25.80;69.10;;;;;;4158146;28;20080;-65
2022/06/16 10:49:58;;;;;;;1.00;0.80;;;25.90;68.60;;;;;;4156313;28;20041;-64
2022/06/16 10:52:06;;;;;;;0.60;0.60;;;25.80;68.50;;;;;;4158086;28;20096;-69
2022/06/16 10:54:31;;;;;;;2.13;1.05;;;25.60;68.30;;;;;;4157543;28;20079;-63
2022/06/16 10:56:32;;;;;;;2.50;0.85;;;25.70;68.80;;;;;;4157239;28;20072;-65
2022/06/16 10:58:49;;;;;;;5.65;1.40;;;25.60;68.10;;;;;;4157238;28;20115;-64
2022/06/16 11:01:21;;;;;;;1.02;0.50;;;25.50;68.80;;;;;;4155805;28;20061;-65
2022/06/16 11:03:22;;;;;;;3.33;0.77;;;25.40;68.00;;;;;;4157571;28;20720;-64
2022/06/16 11:05:25;;;;;;;2.17;0.60;;;25.10;68.50;;;;;;4158110;28;20037;-65
2022/06/16 11:07:34;;;;;;;4.07;0.82;;;25.00;68.70;;;;;;4157748;28;20138;-64
2022/06/16 11:09:36;;;;;;;2.35;0.70;;;25.10;68.80;;;;;;4157419;28;20084;-64
2022/06/16 11:11:46;;;;;;;2.47;0.63;;;25.20;68.60;;;;;;4157114;28;20040;-67